Date,TemperatureHighF,TemperatureAvgF,TemperatureLowF,DewpointHighF,DewpointAvgF,DewpointLowF,HumidityHigh,HumidityAvg,HumidityLow,PressureMaxIn,PressureMinIn,WindSpeedMaxMPH,WindSpeedAvgMPH,GustSpeedMaxMPH,PrecipitationSumIn
2013-7-1,85,73,57,63,55,48,89,57,29,0.00,40.00,8,3,13,0.00
2013-7-2,86,73,55,62,57,53,96,62,34,0.00,40.00,8,4,14,0.00
2013-7-3,87,76,64,61,59,56,83,58,35,0.00,40.00,9,6,20,0.00
2013-7-4,88,75,62,64,59,55,79,59,35,0.00,40.00,16,9,24,0.00
2013-7-5,86,76,66,70,63,58,87,66,46,0.00,40.00,12,6,19,0.00
2013-7-6,76,67,59,70,62,57,95,87,71,0.00,40.00,12,5,17,0.28
2013-7-7,81,72,61,70,64,60,99,78,50,0.00,40.00,11,6,18,0.12
2013-7-8,84,70,55,64,59,54,99,74,43,0.00,40.00,10,4,16,0.00
2013-7-9,71,66,62,65,59,52,95,77,54,0.00,40.00,13,7,25,0.01
2013-7-10,78,66,56,59,52,-100,95,67,46,0.00,40.00,12,7,19,0.01
2013-7-11,84,70,56,63,58,53,93,68,42,0.00,40.00,15,9,25,0.00
2013-7-12,83,74,69,71,66,62,99,78,60,0.00,40.00,14,8,26,0.67
2013-7-13,87,74,63,73,68,63,100,83,49,0.00,40.00,9,4,14,0.07
2013-7-14,83,74,67,70,62,56,97,71,46,0.00,40.00,11,6,19,0.01
2013-7-15,83,72,60,68,61,53,83,69,56,0.00,40.00,18,6,25,0.00
2013-7-16,87,76,63,69,62,55,92,64,45,0.00,40.00,17,8,32,0.00
2013-7-17,80,71,63,63,59,54,92,68,43,0.00,40.00,7,3,10,0.00
2013-7-18,82,72,60,69,66,58,98,82,63,0.00,40.00,10,5,21,0.87
2013-7-19,78,69,57,68,57,46,95,69,35,0.00,40.00,17,11,31,0.02
2013-7-20,70,58,47,50,46,-100,89,67,46,0.00,40.00,10,6,17,0.00
2013-7-21,77,63,44,63,52,42,96,72,49,0.00,40.00,12,6,22,0.11
2013-7-22,71,65,56,66,56,51,94,75,54,0.00,40.00,17,12,26,0.11
2013-7-23,72,60,48,55,52,46,95,74,48,0.00,40.00,6,3,11,0.00
2013-7-24,72,62,47,61,55,46,98,79,57,0.00,40.00,13,6,20,0.00
2013-7-25,74,61,53,60,56,52,99,86,56,0.00,40.00,16,7,26,0.49
2013-7-26,64,58,52,56,48,45,94,72,50,0.00,40.00,16,10,35,0.06
2013-7-27,73,60,49,49,46,43,90,63,35,0.00,40.00,15,9,25,0.00
2013-7-28,75,60,42,52,47,41,98,68,37,0.00,40.00,5,3,12,0.00
2013-7-29,74,62,46,57,51,45,95,70,45,0.00,40.00,14,6,20,0.00
2013-7-30,73,66,60,61,58,54,95,77,58,0.00,40.00,11,8,18,0.01
2013-7-31,70,62,52,58,52,49,91,72,51,0.00,40.00,16,9,25,0.01